sensor_id;sensor_type;location;lat;lon;timestamp;temperature;humidity
43884;DHT22;71973;52.018;5.810;2024-01-27T00:02:05;20.10;46.70
43884;DHT22;71973;52.018;5.810;2024-01-27T00:04:30;20.10;46.80
43884;DHT22;71973;52.018;5.810;2024-01-27T00:06:56;20.00;46.80
43884;DHT22;71973;52.018;5.810;2024-01-27T00:09:21;19.90;46.80
43884;DHT22;71973;52.018;5.810;2024-01-27T00:11:46;19.80;46.90
43884;DHT22;71973;52.018;5.810;2024-01-27T00:14:12;19.80;47.00
43884;DHT22;71973;52.018;5.810;2024-01-27T00:16:37;19.80;47.10
43884;DHT22;71973;52.018;5.810;2024-01-27T00:19:03;19.70;47.20
43884;DHT22;71973;52.018;5.810;2024-01-27T00:21:28;19.60;47.20
43884;DHT22;71973;52.018;5.810;2024-01-27T00:23:54;19.60;47.30
43884;DHT22;71973;52.018;5.810;2024-01-27T00:26:20;19.50;47.40
43884;DHT22;71973;52.018;5.810;2024-01-27T00:28:45;19.50;47.50
43884;DHT22;71973;52.018;5.810;2024-01-27T00:31:11;19.50;47.50
43884;DHT22;71973;52.018;5.810;2024-01-27T00:33:36;19.40;47.60
43884;DHT22;71973;52.018;5.810;2024-01-27T00:36:02;19.30;47.60
43884;DHT22;71973;52.018;5.810;2024-01-27T00:38:27;19.20;47.70
43884;DHT22;71973;52.018;5.810;2024-01-27T00:40:53;19.20;47.80
43884;DHT22;71973;52.018;5.810;2024-01-27T00:43:18;19.20;47.80
43884;DHT22;71973;52.018;5.810;2024-01-27T00:45:44;19.10;47.80
43884;DHT22;71973;52.018;5.810;2024-01-27T00:48:09;19.10;47.80
43884;DHT22;71973;52.018;5.810;2024-01-27T00:50:35;19.00;47.80
43884;DHT22;71973;52.018;5.810;2024-01-27T00:53:01;19.00;47.90
43884;DHT22;71973;52.018;5.810;2024-01-27T00:55:26;18.90;48.00
43884;DHT22;71973;52.018;5.810;2024-01-27T00:57:52;18.90;48.00
43884;DHT22;71973;52.018;5.810;2024-01-27T01:00:19;18.90;48.00
43884;DHT22;71973;52.018;5.810;2024-01-27T01:02:44;18.90;48.00
43884;DHT22;71973;52.018;5.810;2024-01-27T01:05:10;18.80;48.10
43884;DHT22;71973;52.018;5.810;2024-01-27T01:07:35;18.80;48.00
43884;DHT22;71973;52.018;5.810;2024-01-27T01:10:01;18.70;48.10
43884;DHT22;71973;52.018;5.810;2024-01-27T01:12:26;18.70;48.10
43884;DHT22;71973;52.018;5.810;2024-01-27T01:14:52;18.70;48.10
43884;DHT22;71973;52.018;5.810;2024-01-27T01:17:17;18.70;48.10
43884;DHT22;71973;52.018;5.810;2024-01-27T01:19:43;18.60;48.10
43884;DHT22;71973;52.018;5.810;2024-01-27T01:22:08;18.60;48.10
43884;DHT22;71973;52.018;5.810;2024-01-27T01:24:34;18.50;48.20
43884;DHT22;71973;52.018;5.810;2024-01-27T01:26:59;18.50;48.20
43884;DHT22;71973;52.018;5.810;2024-01-27T01:29:25;18.50;48.20
43884;DHT22;71973;52.018;5.810;2024-01-27T01:31:51;18.50;48.20
43884;DHT22;71973;52.018;5.810;2024-01-27T01:34:16;18.40;48.20
43884;DHT22;71973;52.018;5.810;2024-01-27T01:36:42;18.40;48.20
43884;DHT22;71973;52.018;5.810;2024-01-27T01:39:09;18.40;48.30
43884;DHT22;71973;52.018;5.810;2024-01-27T01:41:35;18.30;48.20
43884;DHT22;71973;52.018;5.810;2024-01-27T01:44:00;18.30;48.30
43884;DHT22;71973;52.018;5.810;2024-01-27T01:46:26;18.30;48.30
43884;DHT22;71973;52.018;5.810;2024-01-27T01:48:51;18.20;48.30
43884;DHT22;71973;52.018;5.810;2024-01-27T01:51:17;18.20;48.30
43884;DHT22;71973;52.018;5.810;2024-01-27T01:53:43;18.20;48.30
43884;DHT22;71973;52.018;5.810;2024-01-27T01:56:09;18.20;48.40
43884;DHT22;71973;52.018;5.810;2024-01-27T01:58:34;18.10;48.30
43884;DHT22;71973;52.018;5.810;2024-01-27T02:01:00;18.10;48.30
43884;DHT22;71973;52.018;5.810;2024-01-27T02:03:25;18.10;48.30
43884;DHT22;71973;52.018;5.810;2024-01-27T02:05:51;18.10;48.30
43884;DHT22;71973;52.018;5.810;2024-01-27T02:08:17;18.00;48.30
43884;DHT22;71973;52.018;5.810;2024-01-27T02:10:42;18.00;48.40
43884;DHT22;71973;52.018;5.810;2024-01-27T02:13:17;17.90;48.30
43884;DHT22;71973;52.018;5.810;2024-01-27T02:15:46;18.00;48.40
43884;DHT22;71973;52.018;5.810;2024-01-27T02:18:12;17.90;48.30
43884;DHT22;71973;52.018;5.810;2024-01-27T02:20:37;17.90;48.30
43884;DHT22;71973;52.018;5.810;2024-01-27T02:23:04;17.90;48.40
43884;DHT22;71973;52.018;5.810;2024-01-27T02:25:33;17.80;48.40
43884;DHT22;71973;52.018;5.810;2024-01-27T02:27:59;17.80;48.40
43884;DHT22;71973;52.018;5.810;2024-01-27T02:30:25;17.70;48.30
43884;DHT22;71973;52.018;5.810;2024-01-27T02:32:51;17.70;48.40
43884;DHT22;71973;52.018;5.810;2024-01-27T02:35:16;17.80;48.40
43884;DHT22;71973;52.018;5.810;2024-01-27T02:37:42;17.70;48.40
43884;DHT22;71973;52.018;5.810;2024-01-27T02:40:07;17.60;48.40
43884;DHT22;71973;52.018;5.810;2024-01-27T02:42:34;17.60;48.40
43884;DHT22;71973;52.018;5.810;2024-01-27T02:45:00;17.60;48.40
43884;DHT22;71973;52.018;5.810;2024-01-27T02:47:25;17.60;48.40
43884;DHT22;71973;52.018;5.810;2024-01-27T02:49:51;17.60;48.50
43884;DHT22;71973;52.018;5.810;2024-01-27T02:52:16;17.50;48.50
43884;DHT22;71973;52.018;5.810;2024-01-27T02:54:42;17.50;48.50
43884;DHT22;71973;52.018;5.810;2024-01-27T02:57:07;17.40;48.50
43884;DHT22;71973;52.018;5.810;2024-01-27T02:59:32;17.50;48.50
43884;DHT22;71973;52.018;5.810;2024-01-27T03:01:58;17.50;48.50
43884;DHT22;71973;52.018;5.810;2024-01-27T03:04:23;17.50;48.60
43884;DHT22;71973;52.018;5.810;2024-01-27T03:06:49;17.40;48.60
43884;DHT22;71973;52.018;5.810;2024-01-27T03:09:14;17.30;48.60
43884;DHT22;71973;52.018;5.810;2024-01-27T03:11:40;17.30;48.60
43884;DHT22;71973;52.018;5.810;2024-01-27T03:14:05;17.30;48.60
43884;DHT22;71973;52.018;5.810;2024-01-27T03:16:31;17.30;48.60
43884;DHT22;71973;52.018;5.810;2024-01-27T03:18:57;17.20;48.60
43884;DHT22;71973;52.018;5.810;2024-01-27T03:21:23;17.20;48.60
43884;DHT22;71973;52.018;5.810;2024-01-27T03:23:48;17.20;48.60
43884;DHT22;71973;52.018;5.810;2024-01-27T03:26:14;17.20;48.60
43884;DHT22;71973;52.018;5.810;2024-01-27T03:28:39;17.20;48.70
43884;DHT22;71973;52.018;5.810;2024-01-27T03:31:05;17.20;48.60
43884;DHT22;71973;52.018;5.810;2024-01-27T03:33:31;17.10;48.70
43884;DHT22;71973;52.018;5.810;2024-01-27T03:35:56;17.10;48.60
43884;DHT22;71973;52.018;5.810;2024-01-27T03:38:22;17.10;48.70
43884;DHT22;71973;52.018;5.810;2024-01-27T03:40:48;17.10;48.70
43884;DHT22;71973;52.018;5.810;2024-01-27T03:43:13;17.00;48.70
43884;DHT22;71973;52.018;5.810;2024-01-27T03:45:38;17.00;48.70
43884;DHT22;71973;52.018;5.810;2024-01-27T03:48:04;17.00;48.70
43884;DHT22;71973;52.018;5.810;2024-01-27T03:50:30;17.00;48.70
43884;DHT22;71973;52.018;5.810;2024-01-27T03:52:55;17.00;48.70
43884;DHT22;71973;52.018;5.810;2024-01-27T03:55:20;17.00;48.80
43884;DHT22;71973;52.018;5.810;2024-01-27T03:57:46;16.90;48.60
43884;DHT22;71973;52.018;5.810;2024-01-27T04:00:12;16.90;48.60
43884;DHT22;71973;52.018;5.810;2024-01-27T04:02:37;16.90;48.70
43884;DHT22;71973;52.018;5.810;2024-01-27T04:05:04;16.90;48.70
43884;DHT22;71973;52.018;5.810;2024-01-27T04:07:30;16.80;48.70
43884;DHT22;71973;52.018;5.810;2024-01-27T04:09:55;16.80;48.70
43884;DHT22;71973;52.018;5.810;2024-01-27T04:12:21;16.80;48.70
43884;DHT22;71973;52.018;5.810;2024-01-27T04:14:46;16.80;48.80
43884;DHT22;71973;52.018;5.810;2024-01-27T04:17:12;16.80;48.70
43884;DHT22;71973;52.018;5.810;2024-01-27T04:19:37;16.80;48.80
43884;DHT22;71973;52.018;5.810;2024-01-27T04:22:03;16.80;48.80
43884;DHT22;71973;52.018;5.810;2024-01-27T04:24:29;16.70;48.70
43884;DHT22;71973;52.018;5.810;2024-01-27T04:26:54;16.70;48.80
43884;DHT22;71973;52.018;5.810;2024-01-27T04:29:20;16.70;48.80
43884;DHT22;71973;52.018;5.810;2024-01-27T04:31:45;16.60;48.80
43884;DHT22;71973;52.018;5.810;2024-01-27T04:34:11;16.70;48.80
43884;DHT22;71973;52.018;5.810;2024-01-27T04:36:36;16.70;48.90
43884;DHT22;71973;52.018;5.810;2024-01-27T04:39:02;16.60;48.80
43884;DHT22;71973;52.018;5.810;2024-01-27T04:41:28;16.60;48.80
43884;DHT22;71973;52.018;5.810;2024-01-27T04:43:53;16.60;48.70
43884;DHT22;71973;52.018;5.810;2024-01-27T04:46:20;16.60;48.90
43884;DHT22;71973;52.018;5.810;2024-01-27T04:48:46;16.60;48.70
43884;DHT22;71973;52.018;5.810;2024-01-27T04:51:11;16.50;48.70
43884;DHT22;71973;52.018;5.810;2024-01-27T04:53:37;16.50;48.80
43884;DHT22;71973;52.018;5.810;2024-01-27T04:56:02;16.50;48.80
43884;DHT22;71973;52.018;5.810;2024-01-27T04:58:33;16.50;48.80
43884;DHT22;71973;52.018;5.810;2024-01-27T05:00:59;16.50;48.80
43884;DHT22;71973;52.018;5.810;2024-01-27T05:03:24;16.50;48.80
43884;DHT22;71973;52.018;5.810;2024-01-27T05:05:50;16.40;48.80
43884;DHT22;71973;52.018;5.810;2024-01-27T05:08:15;16.40;48.80
43884;DHT22;71973;52.018;5.810;2024-01-27T05:10:41;16.40;48.90
43884;DHT22;71973;52.018;5.810;2024-01-27T05:13:06;16.40;48.90
43884;DHT22;71973;52.018;5.810;2024-01-27T05:15:31;16.40;48.80
43884;DHT22;71973;52.018;5.810;2024-01-27T05:17:57;16.30;48.80
43884;DHT22;71973;52.018;5.810;2024-01-27T05:20:22;16.30;48.80
43884;DHT22;71973;52.018;5.810;2024-01-27T05:22:48;16.30;48.80
43884;DHT22;71973;52.018;5.810;2024-01-27T05:25:13;16.30;48.80
43884;DHT22;71973;52.018;5.810;2024-01-27T05:27:39;16.30;48.80
43884;DHT22;71973;52.018;5.810;2024-01-27T05:30:07;16.30;48.80
43884;DHT22;71973;52.018;5.810;2024-01-27T05:32:33;16.30;48.80
43884;DHT22;71973;52.018;5.810;2024-01-27T05:34:58;16.20;48.90
43884;DHT22;71973;52.018;5.810;2024-01-27T05:37:24;16.20;48.80
43884;DHT22;71973;52.018;5.810;2024-01-27T05:39:49;16.20;49.00
43884;DHT22;71973;52.018;5.810;2024-01-27T05:42:15;16.20;49.00
43884;DHT22;71973;52.018;5.810;2024-01-27T05:44:40;16.40;49.30
43884;DHT22;71973;52.018;5.810;2024-01-27T05:47:06;16.60;49.00
43884;DHT22;71973;52.018;5.810;2024-01-27T05:49:32;16.90;48.50
43884;DHT22;71973;52.018;5.810;2024-01-27T05:51:57;17.20;47.90
43884;DHT22;71973;52.018;5.810;2024-01-27T05:54:23;17.30;47.40
43884;DHT22;71973;52.018;5.810;2024-01-27T05:56:49;17.50;46.90
43884;DHT22;71973;52.018;5.810;2024-01-27T05:59:14;17.50;46.70
43884;DHT22;71973;52.018;5.810;2024-01-27T06:01:40;17.50;46.80
43884;DHT22;71973;52.018;5.810;2024-01-27T06:04:06;17.60;46.70
43884;DHT22;71973;52.018;5.810;2024-01-27T06:06:32;17.50;46.70
43884;DHT22;71973;52.018;5.810;2024-01-27T06:08:57;17.50;46.80
43884;DHT22;71973;52.018;5.810;2024-01-27T06:11:26;17.50;46.80
43884;DHT22;71973;52.018;5.810;2024-01-27T06:13:51;17.40;46.90
43884;DHT22;71973;52.018;5.810;2024-01-27T06:16:20;17.40;46.80
43884;DHT22;71973;52.018;5.810;2024-01-27T06:18:45;17.30;46.80
43884;DHT22;71973;52.018;5.810;2024-01-27T06:21:11;17.20;47.00
43884;DHT22;71973;52.018;5.810;2024-01-27T06:23:36;17.30;46.90
43884;DHT22;71973;52.018;5.810;2024-01-27T06:26:06;17.30;46.90
43884;DHT22;71973;52.018;5.810;2024-01-27T06:28:31;17.30;47.00
43884;DHT22;71973;52.018;5.810;2024-01-27T06:30:57;17.20;47.20
43884;DHT22;71973;52.018;5.810;2024-01-27T06:33:23;17.20;47.20
43884;DHT22;71973;52.018;5.810;2024-01-27T06:35:48;17.30;47.30
43884;DHT22;71973;52.018;5.810;2024-01-27T06:38:14;17.30;47.10
43884;DHT22;71973;52.018;5.810;2024-01-27T06:40:39;17.50;47.00
43884;DHT22;71973;52.018;5.810;2024-01-27T06:43:05;17.60;46.60
43884;DHT22;71973;52.018;5.810;2024-01-27T06:45:30;17.70;46.40
43884;DHT22;71973;52.018;5.810;2024-01-27T06:47:56;17.70;46.40
43884;DHT22;71973;52.018;5.810;2024-01-27T06:50:21;17.80;46.10
43884;DHT22;71973;52.018;5.810;2024-01-27T06:52:48;17.80;46.00
43884;DHT22;71973;52.018;5.810;2024-01-27T06:55:13;17.60;46.10
43884;DHT22;71973;52.018;5.810;2024-01-27T06:57:39;17.60;46.20
43884;DHT22;71973;52.018;5.810;2024-01-27T07:00:06;17.50;46.30
43884;DHT22;71973;52.018;5.810;2024-01-27T07:02:31;17.50;46.40
43884;DHT22;71973;52.018;5.810;2024-01-27T07:04:57;17.40;46.30
43884;DHT22;71973;52.018;5.810;2024-01-27T07:07:26;17.40;46.40
43884;DHT22;71973;52.018;5.810;2024-01-27T07:09:52;17.40;46.30
43884;DHT22;71973;52.018;5.810;2024-01-27T07:12:17;17.30;46.40
43884;DHT22;71973;52.018;5.810;2024-01-27T07:14:43;17.30;46.70
43884;DHT22;71973;52.018;5.810;2024-01-27T07:17:08;17.30;46.70
43884;DHT22;71973;52.018;5.810;2024-01-27T07:19:34;17.30;46.60
43884;DHT22;71973;52.018;5.810;2024-01-27T07:21:59;17.30;46.70
43884;DHT22;71973;52.018;5.810;2024-01-27T07:24:25;17.30;47.20
43884;DHT22;71973;52.018;5.810;2024-01-27T07:26:51;17.30;46.60
43884;DHT22;71973;52.018;5.810;2024-01-27T07:29:18;17.20;46.60
43884;DHT22;71973;52.018;5.810;2024-01-27T07:31:45;17.20;46.70
43884;DHT22;71973;52.018;5.810;2024-01-27T07:34:10;17.20;46.80
43884;DHT22;71973;52.018;5.810;2024-01-27T07:36:36;17.10;46.90
43884;DHT22;71973;52.018;5.810;2024-01-27T07:39:01;17.20;47.00
43884;DHT22;71973;52.018;5.810;2024-01-27T07:41:27;17.20;47.00
43884;DHT22;71973;52.018;5.810;2024-01-27T07:43:54;17.20;46.80
43884;DHT22;71973;52.018;5.810;2024-01-27T07:46:19;17.30;46.70
43884;DHT22;71973;52.018;5.810;2024-01-27T07:48:47;17.40;46.50
43884;DHT22;71973;52.018;5.810;2024-01-27T07:51:12;17.50;46.40
43884;DHT22;71973;52.018;5.810;2024-01-27T07:53:38;17.50;46.20
43884;DHT22;71973;52.018;5.810;2024-01-27T07:56:03;17.50;46.00
43884;DHT22;71973;52.018;5.810;2024-01-27T07:58:29;17.50;46.00
43884;DHT22;71973;52.018;5.810;2024-01-27T08:00:54;17.50;46.00
43884;DHT22;71973;52.018;5.810;2024-01-27T08:03:20;17.50;45.90
43884;DHT22;71973;52.018;5.810;2024-01-27T08:05:45;17.50;45.80
43884;DHT22;71973;52.018;5.810;2024-01-27T08:08:11;17.50;45.90
43884;DHT22;71973;52.018;5.810;2024-01-27T08:10:36;17.40;45.90
43884;DHT22;71973;52.018;5.810;2024-01-27T08:13:02;17.40;46.10
43884;DHT22;71973;52.018;5.810;2024-01-27T08:15:27;17.30;46.10
43884;DHT22;71973;52.018;5.810;2024-01-27T08:17:53;17.20;46.20
43884;DHT22;71973;52.018;5.810;2024-01-27T08:20:18;17.20;46.10
43884;DHT22;71973;52.018;5.810;2024-01-27T08:22:44;17.30;46.10
43884;DHT22;71973;52.018;5.810;2024-01-27T08:25:09;17.20;46.10
43884;DHT22;71973;52.018;5.810;2024-01-27T08:27:35;17.10;46.60
43884;DHT22;71973;52.018;5.810;2024-01-27T08:30:00;17.20;46.60
43884;DHT22;71973;52.018;5.810;2024-01-27T08:32:26;17.20;46.70
43884;DHT22;71973;52.018;5.810;2024-01-27T08:34:51;17.10;46.80
43884;DHT22;71973;52.018;5.810;2024-01-27T08:37:20;17.10;46.80
43884;DHT22;71973;52.018;5.810;2024-01-27T08:39:46;17.10;47.10
43884;DHT22;71973;52.018;5.810;2024-01-27T08:42:11;17.00;47.10
43884;DHT22;71973;52.018;5.810;2024-01-27T08:44:37;16.90;47.20
43884;DHT22;71973;52.018;5.810;2024-01-27T08:47:02;16.80;47.60
43884;DHT22;71973;52.018;5.810;2024-01-27T08:49:28;16.70;47.90
43884;DHT22;71973;52.018;5.810;2024-01-27T08:51:53;16.70;48.10
43884;DHT22;71973;52.018;5.810;2024-01-27T08:54:20;16.50;48.30
43884;DHT22;71973;52.018;5.810;2024-01-27T08:56:46;16.50;48.60
43884;DHT22;71973;52.018;5.810;2024-01-27T08:59:11;16.50;48.90
43884;DHT22;71973;52.018;5.810;2024-01-27T09:01:37;16.40;49.10
43884;DHT22;71973;52.018;5.810;2024-01-27T09:04:02;16.40;49.20
43884;DHT22;71973;52.018;5.810;2024-01-27T09:06:28;16.40;49.40
43884;DHT22;71973;52.018;5.810;2024-01-27T09:08:53;16.30;49.50
43884;DHT22;71973;52.018;5.810;2024-01-27T09:11:19;16.30;49.50
43884;DHT22;71973;52.018;5.810;2024-01-27T09:13:44;16.40;49.70
43884;DHT22;71973;52.018;5.810;2024-01-27T09:16:10;16.30;49.80
43884;DHT22;71973;52.018;5.810;2024-01-27T09:18:38;16.30;49.90
43884;DHT22;71973;52.018;5.810;2024-01-27T09:21:04;16.20;50.00
43884;DHT22;71973;52.018;5.810;2024-01-27T09:23:29;16.20;50.00
43884;DHT22;71973;52.018;5.810;2024-01-27T09:25:55;16.20;50.00
43884;DHT22;71973;52.018;5.810;2024-01-27T09:28:20;16.20;50.10
43884;DHT22;71973;52.018;5.810;2024-01-27T09:30:46;16.20;50.10
43884;DHT22;71973;52.018;5.810;2024-01-27T09:33:12;16.20;50.10
43884;DHT22;71973;52.018;5.810;2024-01-27T09:35:38;16.10;50.00
43884;DHT22;71973;52.018;5.810;2024-01-27T09:38:03;16.20;50.10
43884;DHT22;71973;52.018;5.810;2024-01-27T09:40:29;16.20;50.00
43884;DHT22;71973;52.018;5.810;2024-01-27T09:42:55;16.40;49.50
43884;DHT22;71973;52.018;5.810;2024-01-27T09:45:23;16.60;49.10
43884;DHT22;71973;52.018;5.810;2024-01-27T09:47:49;16.70;48.80
43884;DHT22;71973;52.018;5.810;2024-01-27T09:50:14;16.80;48.70
43884;DHT22;71973;52.018;5.810;2024-01-27T09:52:42;16.80;48.60
43884;DHT22;71973;52.018;5.810;2024-01-27T09:55:08;16.90;48.50
43884;DHT22;71973;52.018;5.810;2024-01-27T09:57:34;16.90;48.50
43884;DHT22;71973;52.018;5.810;2024-01-27T10:00:03;16.80;48.50
43884;DHT22;71973;52.018;5.810;2024-01-27T10:02:29;16.80;48.60
43884;DHT22;71973;52.018;5.810;2024-01-27T10:04:55;16.80;48.70
43884;DHT22;71973;52.018;5.810;2024-01-27T10:07:21;16.80;48.70
43884;DHT22;71973;52.018;5.810;2024-01-27T10:09:51;16.80;48.80
43884;DHT22;71973;52.018;5.810;2024-01-27T10:12:16;16.70;48.80
43884;DHT22;71973;52.018;5.810;2024-01-27T10:14:43;16.70;48.90
43884;DHT22;71973;52.018;5.810;2024-01-27T10:17:20;16.70;48.80
43884;DHT22;71973;52.018;5.810;2024-01-27T10:19:47;16.70;48.90
43884;DHT22;71973;52.018;5.810;2024-01-27T10:22:13;16.70;48.90
43884;DHT22;71973;52.018;5.810;2024-01-27T10:24:38;16.70;48.90
43884;DHT22;71973;52.018;5.810;2024-01-27T10:27:04;16.60;49.00
43884;DHT22;71973;52.018;5.810;2024-01-27T10:29:30;16.60;49.10
43884;DHT22;71973;52.018;5.810;2024-01-27T10:31:55;16.60;49.00
43884;DHT22;71973;52.018;5.810;2024-01-27T10:34:21;16.60;49.10
43884;DHT22;71973;52.018;5.810;2024-01-27T10:36:46;16.60;49.00
43884;DHT22;71973;52.018;5.810;2024-01-27T10:39:19;16.60;49.10
43884;DHT22;71973;52.018;5.810;2024-01-27T10:41:46;16.60;49.10
43884;DHT22;71973;52.018;5.810;2024-01-27T10:44:16;16.60;49.20
43884;DHT22;71973;52.018;5.810;2024-01-27T10:46:45;16.50;49.40
43884;DHT22;71973;52.018;5.810;2024-01-27T10:49:14;16.40;49.70
43884;DHT22;71973;52.018;5.810;2024-01-27T10:51:44;16.40;49.80
43884;DHT22;71973;52.018;5.810;2024-01-27T10:54:10;16.40;50.00
43884;DHT22;71973;52.018;5.810;2024-01-27T10:56:38;16.40;50.10
43884;DHT22;71973;52.018;5.810;2024-01-27T10:59:05;16.40;50.10
43884;DHT22;71973;52.018;5.810;2024-01-27T11:01:33;16.30;50.70
43884;DHT22;71973;52.018;5.810;2024-01-27T11:03:59;16.40;50.20
43884;DHT22;71973;52.018;5.810;2024-01-27T11:06:25;16.30;50.20
43884;DHT22;71973;52.018;5.810;2024-01-27T11:08:52;16.30;50.20
43884;DHT22;71973;52.018;5.810;2024-01-27T11:11:18;16.30;50.20
43884;DHT22;71973;52.018;5.810;2024-01-27T11:13:44;16.30;50.20
43884;DHT22;71973;52.018;5.810;2024-01-27T11:16:15;16.40;50.30
43884;DHT22;71973;52.018;5.810;2024-01-27T11:18:41;16.30;50.20
43884;DHT22;71973;52.018;5.810;2024-01-27T11:21:07;16.30;50.20
43884;DHT22;71973;52.018;5.810;2024-01-27T11:23:33;16.40;50.30
43884;DHT22;71973;52.018;5.810;2024-01-27T11:26:06;16.40;50.20
43884;DHT22;71973;52.018;5.810;2024-01-27T11:28:31;16.40;50.20
43884;DHT22;71973;52.018;5.810;2024-01-27T11:30:57;16.40;50.20
43884;DHT22;71973;52.018;5.810;2024-01-27T11:33:25;16.40;50.10
43884;DHT22;71973;52.018;5.810;2024-01-27T11:36:01;16.40;50.10
43884;DHT22;71973;52.018;5.810;2024-01-27T11:38:27;16.40;50.00
43884;DHT22;71973;52.018;5.810;2024-01-27T11:40:53;16.40;49.90
43884;DHT22;71973;52.018;5.810;2024-01-27T11:43:18;16.50;49.90
43884;DHT22;71973;52.018;5.810;2024-01-27T11:45:54;16.60;49.90
43884;DHT22;71973;52.018;5.810;2024-01-27T11:48:20;16.60;50.40
43884;DHT22;71973;52.018;5.810;2024-01-27T11:50:45;16.60;49.70
43884;DHT22;71973;52.018;5.810;2024-01-27T11:53:11;16.60;49.70
43884;DHT22;71973;52.018;5.810;2024-01-27T11:55:37;16.60;49.60
43884;DHT22;71973;52.018;5.810;2024-01-27T11:58:02;16.60;49.60
43884;DHT22;71973;52.018;5.810;2024-01-27T12:00:28;16.70;49.60
43884;DHT22;71973;52.018;5.810;2024-01-27T12:02:53;16.70;49.60
43884;DHT22;71973;52.018;5.810;2024-01-27T12:05:19;16.70;49.60
43884;DHT22;71973;52.018;5.810;2024-01-27T12:07:44;16.70;49.60
43884;DHT22;71973;52.018;5.810;2024-01-27T12:10:09;16.70;49.50
43884;DHT22;71973;52.018;5.810;2024-01-27T12:12:36;16.70;49.50
43884;DHT22;71973;52.018;5.810;2024-01-27T12:15:01;16.80;49.50
43884;DHT22;71973;52.018;5.810;2024-01-27T12:17:27;16.80;49.60
43884;DHT22;71973;52.018;5.810;2024-01-27T12:19:53;16.80;49.60
43884;DHT22;71973;52.018;5.810;2024-01-27T12:22:22;16.80;49.60
43884;DHT22;71973;52.018;5.810;2024-01-27T12:24:48;16.80;49.60
43884;DHT22;71973;52.018;5.810;2024-01-27T12:27:14;16.80;49.60
43884;DHT22;71973;52.018;5.810;2024-01-27T12:29:43;16.80;49.60
43884;DHT22;71973;52.018;5.810;2024-01-27T12:32:08;16.80;49.60
43884;DHT22;71973;52.018;5.810;2024-01-27T12:34:40;16.80;49.60
43884;DHT22;71973;52.018;5.810;2024-01-27T12:37:07;16.80;49.70
43884;DHT22;71973;52.018;5.810;2024-01-27T12:39:32;16.80;49.80
43884;DHT22;71973;52.018;5.810;2024-01-27T12:41:58;16.80;49.80
43884;DHT22;71973;52.018;5.810;2024-01-27T12:44:23;17.00;50.60
43884;DHT22;71973;52.018;5.810;2024-01-27T12:46:49;17.10;49.80
43884;DHT22;71973;52.018;5.810;2024-01-27T12:49:14;17.10;49.60
43884;DHT22;71973;52.018;5.810;2024-01-27T12:51:40;17.10;49.60
43884;DHT22;71973;52.018;5.810;2024-01-27T12:54:05;17.10;49.70
43884;DHT22;71973;52.018;5.810;2024-01-27T12:56:32;17.10;49.80
43884;DHT22;71973;52.018;5.810;2024-01-27T12:59:00;17.10;49.70
43884;DHT22;71973;52.018;5.810;2024-01-27T13:01:26;17.00;49.60
43884;DHT22;71973;52.018;5.810;2024-01-27T13:03:52;17.10;49.60
43884;DHT22;71973;52.018;5.810;2024-01-27T13:06:18;17.10;49.60
43884;DHT22;71973;52.018;5.810;2024-01-27T13:08:44;17.10;49.50
43884;DHT22;71973;52.018;5.810;2024-01-27T13:11:09;17.10;49.50
43884;DHT22;71973;52.018;5.810;2024-01-27T13:13:35;17.10;49.50
43884;DHT22;71973;52.018;5.810;2024-01-27T13:16:00;17.10;49.50
43884;DHT22;71973;52.018;5.810;2024-01-27T13:18:26;17.10;49.50
43884;DHT22;71973;52.018;5.810;2024-01-27T13:20:51;17.10;49.60
43884;DHT22;71973;52.018;5.810;2024-01-27T13:23:17;17.10;49.40
43884;DHT22;71973;52.018;5.810;2024-01-27T13:25:42;17.10;49.50
43884;DHT22;71973;52.018;5.810;2024-01-27T13:28:08;17.10;49.50
43884;DHT22;71973;52.018;5.810;2024-01-27T13:30:36;17.10;49.50
43884;DHT22;71973;52.018;5.810;2024-01-27T13:33:02;17.00;49.50
43884;DHT22;71973;52.018;5.810;2024-01-27T13:35:27;17.00;49.50
43884;DHT22;71973;52.018;5.810;2024-01-27T13:37:53;17.00;49.50
43884;DHT22;71973;52.018;5.810;2024-01-27T13:40:19;17.10;49.50
43884;DHT22;71973;52.018;5.810;2024-01-27T13:42:44;17.00;49.40
43884;DHT22;71973;52.018;5.810;2024-01-27T13:45:10;17.00;49.50
43884;DHT22;71973;52.018;5.810;2024-01-27T13:47:36;17.00;49.50
43884;DHT22;71973;52.018;5.810;2024-01-27T13:50:02;17.00;49.50
43884;DHT22;71973;52.018;5.810;2024-01-27T13:52:27;16.90;49.50
43884;DHT22;71973;52.018;5.810;2024-01-27T13:54:54;17.00;49.70
43884;DHT22;71973;52.018;5.810;2024-01-27T13:57:20;16.90;49.60
43884;DHT22;71973;52.018;5.810;2024-01-27T13:59:46;16.90;49.70
43884;DHT22;71973;52.018;5.810;2024-01-27T14:02:11;16.90;49.70
43884;DHT22;71973;52.018;5.810;2024-01-27T14:04:36;16.80;49.70
43884;DHT22;71973;52.018;5.810;2024-01-27T14:07:02;16.80;49.70
43884;DHT22;71973;52.018;5.810;2024-01-27T14:09:32;16.80;49.80
43884;DHT22;71973;52.018;5.810;2024-01-27T14:11:57;16.80;49.80
43884;DHT22;71973;52.018;5.810;2024-01-27T14:14:23;16.80;49.90
43884;DHT22;71973;52.018;5.810;2024-01-27T14:16:48;16.70;49.80
43884;DHT22;71973;52.018;5.810;2024-01-27T14:19:14;16.70;50.00
43884;DHT22;71973;52.018;5.810;2024-01-27T14:21:39;16.70;50.00
43884;DHT22;71973;52.018;5.810;2024-01-27T14:24:06;16.60;50.10
43884;DHT22;71973;52.018;5.810;2024-01-27T14:26:32;16.70;50.20
43884;DHT22;71973;52.018;5.810;2024-01-27T14:28:57;16.60;50.10
43884;DHT22;71973;52.018;5.810;2024-01-27T14:31:23;16.60;50.10
43884;DHT22;71973;52.018;5.810;2024-01-27T14:33:49;16.60;50.10
43884;DHT22;71973;52.018;5.810;2024-01-27T14:36:14;16.60;50.10
43884;DHT22;71973;52.018;5.810;2024-01-27T14:38:40;16.60;50.20
43884;DHT22;71973;52.018;5.810;2024-01-27T14:41:06;16.60;50.10
43884;DHT22;71973;52.018;5.810;2024-01-27T14:43:32;16.70;50.20
43884;DHT22;71973;52.018;5.810;2024-01-27T14:45:57;16.60;50.10
43884;DHT22;71973;52.018;5.810;2024-01-27T14:48:23;16.60;50.20
43884;DHT22;71973;52.018;5.810;2024-01-27T14:50:48;16.60;50.20
43884;DHT22;71973;52.018;5.810;2024-01-27T14:53:18;16.60;50.10
43884;DHT22;71973;52.018;5.810;2024-01-27T14:55:44;16.50;50.00
43884;DHT22;71973;52.018;5.810;2024-01-27T14:58:10;16.50;50.00
43884;DHT22;71973;52.018;5.810;2024-01-27T15:00:35;16.50;50.00
43884;DHT22;71973;52.018;5.810;2024-01-27T15:03:04;16.50;49.90
43884;DHT22;71973;52.018;5.810;2024-01-27T15:05:29;16.50;49.90
43884;DHT22;71973;52.018;5.810;2024-01-27T15:07:55;16.50;49.90
43884;DHT22;71973;52.018;5.810;2024-01-27T15:10:20;16.50;50.10
43884;DHT22;71973;52.018;5.810;2024-01-27T15:12:46;16.60;50.10
43884;DHT22;71973;52.018;5.810;2024-01-27T15:15:12;16.70;49.60
43884;DHT22;71973;52.018;5.810;2024-01-27T15:17:38;16.70;49.60
43884;DHT22;71973;52.018;5.810;2024-01-27T15:20:04;16.60;49.70
43884;DHT22;71973;52.018;5.810;2024-01-27T15:22:30;16.60;49.80